Time;durP1;ratioP1;P1;durP2;ratioP2;P2;SDS_P1;SDS_P2;PMS_P1;PMS_P2;Temp;Humidity;BMP_temperature;BMP_pressure;BME280_temperature;BME280_humidity;BME280_pressure;Samples;Min_cycle;Max_cycle;Signal;HPM_P1;HPM_P2
2024/02/22 00:00:50;;;;;;;0.73;0.73;;;9.30;99.90;;;;;;4427202;32;20252;-57
2024/02/22 00:03:16;;;;;;;3.70;1.08;;;9.30;99.90;;;;;;4426399;32;20081;-57
2024/02/22 00:05:42;;;;;;;0.32;0.32;;;9.30;99.90;;;;;;4425766;32;20070;-58
2024/02/22 00:08:07;;;;;;;0.40;0.40;;;9.20;99.90;;;;;;4428352;32;20543;-58
2024/02/22 00:10:33;;;;;;;0.47;0.47;;;9.20;99.90;;;;;;4427249;32;20127;-56
2024/02/22 00:12:58;;;;;;;0.40;0.40;;;9.20;99.90;;;;;;4424252;32;20090;-59
2024/02/22 00:15:25;;;;;;;0.20;0.20;;;9.20;99.90;;;;;;4425920;32;20072;-58
2024/02/22 00:17:52;;;;;;;1.35;0.82;;;9.30;99.90;;;;;;4415400;32;21092;-57
2024/02/22 00:20:18;;;;;;;0.90;0.80;;;9.30;99.90;;;;;;4416957;32;20124;-57
2024/02/22 00:22:44;;;;;;;0.30;0.30;;;9.30;99.90;;;;;;4425064;32;20081;-59
2024/02/22 00:25:09;;;;;;;1.02;0.73;;;9.30;99.90;;;;;;4424388;32;20069;-57
2024/02/22 00:27:36;;;;;;;0.30;0.30;;;9.30;99.90;;;;;;4426160;32;20479;-60
2024/02/22 00:30:02;;;;;;;0.85;0.68;;;9.40;99.90;;;;;;4426212;32;20069;-58
2024/02/22 00:32:28;;;;;;;0.30;0.30;;;9.30;99.90;;;;;;4417451;32;20061;-59
2024/02/22 00:34:53;;;;;;;0.50;0.50;;;9.30;99.90;;;;;;4427976;32;20082;-58
2024/02/22 00:37:19;;;;;;;0.30;0.30;;;9.20;99.90;;;;;;4426198;32;20578;-58
2024/02/22 00:39:46;;;;;;;1.80;0.90;;;9.10;99.90;;;;;;4426445;32;20080;-58
2024/02/22 00:42:11;;;;;;;0.40;0.40;;;9.00;99.90;;;;;;4417786;32;20450;-61
2024/02/22 00:44:37;;;;;;;0.32;0.32;;;9.00;99.90;;;;;;4420261;32;20069;-59
2024/02/22 00:47:02;;;;;;;3.22;0.80;;;9.00;99.90;;;;;;4422771;32;20119;-59
2024/02/22 00:49:28;;;;;;;1.08;0.75;;;9.00;99.90;;;;;;4424504;32;20571;-59
2024/02/22 00:51:53;;;;;;;0.40;0.40;;;9.00;99.90;;;;;;4421718;32;20550;-58
2024/02/22 00:54:19;;;;;;;0.60;0.60;;;9.10;99.90;;;;;;4405970;32;20086;-59
2024/02/22 00:56:44;;;;;;;1.23;1.00;;;9.10;99.90;;;;;;4405970;32;20073;-59
2024/02/22 00:59:10;;;;;;;0.55;0.55;;;9.20;99.90;;;;;;4404554;32;20287;-59
2024/02/22 01:01:35;;;;;;;0.30;0.30;;;9.10;99.90;;;;;;4405274;32;20128;-57
2024/02/22 01:04:01;;;;;;;0.30;0.30;;;9.10;99.90;;;;;;4405322;32;20518;-59
2024/02/22 01:06:26;;;;;;;0.73;0.55;;;9.10;99.90;;;;;;4403158;32;20065;-58
2024/02/22 01:08:52;;;;;;;0.50;0.50;;;9.00;99.90;;;;;;4402569;32;20069;-59
2024/02/22 01:11:17;;;;;;;0.60;0.60;;;9.00;99.90;;;;;;4401561;32;20131;-57
2024/02/22 01:13:43;;;;;;;0.30;0.30;;;9.00;99.90;;;;;;4403745;32;20405;-57
2024/02/22 01:16:08;;;;;;;18.40;1.15;;;9.10;99.90;;;;;;4403003;32;20108;-59
2024/02/22 01:18:34;;;;;;;0.62;0.60;;;9.00;99.90;;;;;;4402992;32;20085;-59
2024/02/22 01:20:59;;;;;;;0.30;0.30;;;9.10;99.90;;;;;;4402916;32;20066;-59
2024/02/22 01:23:25;;;;;;;0.40;0.40;;;9.10;99.90;;;;;;4404627;32;20066;-59
2024/02/22 01:25:50;;;;;;;0.50;0.50;;;9.10;99.90;;;;;;4400351;32;20081;-59
2024/02/22 01:28:16;;;;;;;0.85;0.70;;;9.20;99.90;;;;;;4401357;32;20074;-58
2024/02/22 01:30:41;;;;;;;0.60;0.60;;;9.20;99.90;;;;;;4403924;32;20100;-58
2024/02/22 01:33:08;;;;;;;0.40;0.40;;;9.30;99.90;;;;;;4403486;32;20069;-57
2024/02/22 01:35:34;;;;;;;0.45;0.45;;;9.30;99.90;;;;;;4401954;32;20089;-59
2024/02/22 01:37:59;;;;;;;0.22;0.22;;;9.20;99.90;;;;;;4403619;32;20443;-57
2024/02/22 01:40:25;;;;;;;0.35;0.35;;;9.30;99.90;;;;;;4404019;32;20069;-59
2024/02/22 01:42:50;;;;;;;0.37;0.37;;;9.30;99.90;;;;;;4402413;32;20074;-57
2024/02/22 01:45:16;;;;;;;4.65;0.88;;;9.40;99.90;;;;;;4404862;32;20073;-59
2024/02/22 01:47:41;;;;;;;0.30;0.30;;;9.50;99.90;;;;;;4402033;32;20176;-59
2024/02/22 01:50:09;;;;;;;0.62;0.62;;;9.40;99.90;;;;;;4402916;32;20319;-57
2024/02/22 01:52:34;;;;;;;0.30;0.30;;;9.50;99.90;;;;;;4392629;32;20081;-58
2024/02/22 01:55:01;;;;;;;0.30;0.30;;;9.50;99.90;;;;;;4415492;32;20097;-58
2024/02/22 01:57:26;;;;;;;0.25;0.25;;;9.60;99.90;;;;;;4414523;32;20112;-57
2024/02/22 01:59:53;;;;;;;0.30;0.30;;;9.60;99.90;;;;;;4415801;32;20085;-58
2024/02/22 02:02:19;;;;;;;1.33;0.57;;;9.60;99.90;;;;;;4415255;32;20097;-57
2024/02/22 02:04:44;;;;;;;0.30;0.30;;;9.70;99.90;;;;;;4415285;32;20085;-62
2024/02/22 02:07:10;;;;;;;0.37;0.37;;;9.70;99.90;;;;;;4411675;32;20085;-58
2024/02/22 02:09:36;;;;;;;0.40;0.40;;;9.70;99.90;;;;;;4412995;32;20217;-59
2024/02/22 02:12:02;;;;;;;1.40;0.52;;;9.70;99.90;;;;;;4411065;32;20123;-58
2024/02/22 02:14:27;;;;;;;0.40;0.40;;;9.80;99.90;;;;;;4413970;32;20077;-57
2024/02/22 02:16:52;;;;;;;0.30;0.30;;;9.80;99.90;;;;;;4412140;32;20072;-59
2024/02/22 02:19:20;;;;;;;0.28;0.28;;;9.80;99.90;;;;;;4412402;32;20109;-57
2024/02/22 02:22:00;;;;;;;0.77;0.77;;;9.80;99.90;;;;;;4415193;32;20062;-58
2024/02/22 02:24:36;;;;;;;0.50;0.50;;;9.90;99.90;;;;;;4414399;32;20073;-58
2024/02/22 02:27:02;;;;;;;0.40;0.40;;;9.90;99.90;;;;;;4409702;32;20625;-58
2024/02/22 02:29:27;;;;;;;0.30;0.30;;;9.90;99.90;;;;;;4413981;32;20491;-57
2024/02/22 02:31:53;;;;;;;2.85;0.57;;;9.90;99.90;;;;;;4417000;32;20538;-58
2024/02/22 02:34:18;;;;;;;0.40;0.40;;;9.80;99.90;;;;;;4414165;32;20073;-58
2024/02/22 02:36:43;;;;;;;0.28;0.28;;;9.80;99.90;;;;;;4413774;32;20419;-58
2024/02/22 02:39:09;;;;;;;0.32;0.32;;;9.90;99.90;;;;;;4414347;32;20545;-58
2024/02/22 02:41:34;;;;;;;0.40;0.40;;;9.90;99.90;;;;;;4410062;32;20089;-57
2024/02/22 02:44:00;;;;;;;0.30;0.30;;;10.00;99.90;;;;;;4408119;32;20478;-58
2024/02/22 02:46:26;;;;;;;0.30;0.30;;;10.00;99.90;;;;;;4409419;32;20521;-58
2024/02/22 02:48:52;;;;;;;0.30;0.30;;;10.10;99.90;;;;;;4410902;32;20077;-58
2024/02/22 02:51:17;;;;;;;6.93;1.05;;;10.10;99.90;;;;;;4414133;32;20116;-58
2024/02/22 02:53:43;;;;;;;0.30;0.30;;;10.20;99.90;;;;;;4420060;32;20128;-59
2024/02/22 02:56:10;;;;;;;0.30;0.30;;;10.30;99.90;;;;;;4423332;32;20069;-59
2024/02/22 02:58:35;;;;;;;0.30;0.30;;;10.30;99.90;;;;;;4415393;32;20394;-57
2024/02/22 03:01:01;;;;;;;0.50;0.50;;;10.20;99.90;;;;;;4426354;32;20086;-58
2024/02/22 03:03:26;;;;;;;0.35;0.35;;;10.30;99.90;;;;;;4425225;32;20089;-57
2024/02/22 03:05:51;;;;;;;0.40;0.40;;;10.30;99.90;;;;;;4427029;32;20069;-59
2024/02/22 03:08:17;;;;;;;0.40;0.40;;;10.30;99.90;;;;;;4426228;32;20077;-59
2024/02/22 03:10:42;;;;;;;0.30;0.30;;;10.30;99.90;;;;;;4424012;32;20068;-59
2024/02/22 03:13:08;;;;;;;0.30;0.30;;;10.30;99.90;;;;;;4423282;32;20069;-58
2024/02/22 03:15:36;;;;;;;0.40;0.40;;;10.30;99.90;;;;;;4414705;32;20436;-59
2024/02/22 03:18:04;;;;;;;0.22;0.22;;;10.30;99.90;;;;;;4400972;32;20540;-58
2024/02/22 03:20:30;;;;;;;0.50;0.50;;;10.30;99.90;;;;;;4417453;32;20560;-58
2024/02/22 03:22:55;;;;;;;0.45;0.45;;;10.30;99.90;;;;;;4423773;32;20128;-59
2024/02/22 03:25:21;;;;;;;0.30;0.30;;;10.30;99.90;;;;;;4413474;32;20066;-58
2024/02/22 03:27:49;;;;;;;0.30;0.30;;;10.30;99.90;;;;;;4422150;32;20065;-57
2024/02/22 03:30:16;;;;;;;0.40;0.40;;;10.20;99.90;;;;;;4427299;32;20126;-58
2024/02/22 03:32:42;;;;;;;0.40;0.40;;;10.20;99.90;;;;;;4417426;32;20595;-57
2024/02/22 03:35:09;;;;;;;0.30;0.30;;;10.20;99.90;;;;;;4424912;32;20069;-59
2024/02/22 03:37:35;;;;;;;0.52;0.35;;;10.20;99.90;;;;;;4425683;32;20133;-59
2024/02/22 03:40:01;;;;;;;0.37;0.37;;;10.20;99.90;;;;;;4414677;32;20073;-57
2024/02/22 03:42:28;;;;;;;0.40;0.40;;;10.20;99.90;;;;;;4425625;32;20072;-59
2024/02/22 03:44:54;;;;;;;1.20;0.47;;;10.10;99.90;;;;;;4410677;32;20056;-57
2024/02/22 03:47:19;;;;;;;0.45;0.45;;;10.10;99.90;;;;;;4424106;32;20077;-58
2024/02/22 03:49:45;;;;;;;0.30;0.30;;;10.00;99.90;;;;;;4424989;32;20482;-58
2024/02/22 03:52:13;;;;;;;0.40;0.40;;;10.00;99.90;;;;;;4423452;32;20580;-58
2024/02/22 03:54:38;;;;;;;6.15;0.60;;;9.90;99.90;;;;;;4426167;32;20093;-58
2024/02/22 03:57:04;;;;;;;0.32;0.32;;;9.90;99.90;;;;;;4422102;32;20621;-57
2024/02/22 03:59:30;;;;;;;0.40;0.40;;;9.90;99.90;;;;;;4424958;32;20084;-59
2024/02/22 04:01:55;;;;;;;0.30;0.30;;;9.90;99.90;;;;;;4425944;32;20089;-59
2024/02/22 04:04:21;;;;;;;0.43;0.37;;;9.90;99.90;;;;;;4423502;32;20127;-58
2024/02/22 04:06:46;;;;;;;0.35;0.35;;;9.90;99.90;;;;;;4421149;32;20211;-58
2024/02/22 04:09:12;;;;;;;0.30;0.30;;;9.90;99.90;;;;;;4426688;32;20070;-58
2024/02/22 04:11:37;;;;;;;0.45;0.40;;;9.90;99.90;;;;;;4424327;32;21809;-58
2024/02/22 04:14:03;;;;;;;1.85;0.62;;;9.90;99.90;;;;;;4424729;32;20413;-58
2024/02/22 04:16:28;;;;;;;0.70;0.70;;;9.90;99.90;;;;;;4423448;32;20084;-59
2024/02/22 04:18:54;;;;;;;0.30;0.30;;;9.90;99.90;;;;;;4424477;32;20073;-59
2024/02/22 04:21:19;;;;;;;0.30;0.30;;;9.90;99.90;;;;;;4413852;32;20545;-58
2024/02/22 04:23:45;;;;;;;0.40;0.40;;;9.90;99.90;;;;;;4424044;32;20069;-59
2024/02/22 04:26:10;;;;;;;4.57;1.60;;;9.90;99.90;;;;;;4423596;32;20100;-59
2024/02/22 04:28:36;;;;;;;0.30;0.30;;;9.90;99.90;;;;;;4423508;32;20065;-59
2024/02/22 04:31:04;;;;;;;0.30;0.30;;;9.90;99.90;;;;;;4416953;32;20126;-58
2024/02/22 04:33:29;;;;;;;0.30;0.30;;;9.80;99.90;;;;;;4425658;32;20149;-57
2024/02/22 04:35:55;;;;;;;0.40;0.40;;;9.80;99.90;;;;;;4415881;32;20560;-58
2024/02/22 04:38:22;;;;;;;0.30;0.30;;;9.80;99.90;;;;;;4423059;32;20458;-58
2024/02/22 04:40:48;;;;;;;0.40;0.40;;;9.80;99.90;;;;;;4413411;32;20484;-58
2024/02/22 04:43:14;;;;;;;1.73;0.32;;;9.80;99.90;;;;;;4412832;32;20632;-59
2024/02/22 04:45:39;;;;;;;3.70;1.30;;;9.80;99.90;;;;;;4423100;32;20520;-60
2024/02/22 04:48:06;;;;;;;0.30;0.30;;;9.80;99.90;;;;;;4399745;32;20615;-59
2024/02/22 04:50:32;;;;;;;0.50;0.50;;;9.80;99.90;;;;;;4424714;32;20208;-58
2024/02/22 04:52:59;;;;;;;0.30;0.30;;;9.80;99.90;;;;;;4423594;32;20128;-59
2024/02/22 04:55:25;;;;;;;0.40;0.40;;;9.80;99.90;;;;;;4413861;32;20080;-57
2024/02/22 04:57:50;;;;;;;0.30;0.30;;;9.80;99.90;;;;;;4422682;32;20318;-58
2024/02/22 05:00:16;;;;;;;0.40;0.40;;;9.80;99.90;;;;;;4415171;32;20074;-58
2024/02/22 05:02:43;;;;;;;0.40;0.40;;;9.80;99.90;;;;;;4427676;32;20085;-57
2024/02/22 05:05:08;;;;;;;0.52;0.52;;;9.70;99.90;;;;;;4415529;32;20496;-59
2024/02/22 05:07:34;;;;;;;0.32;0.32;;;9.80;99.90;;;;;;4425898;32;20152;-57
2024/02/22 05:10:00;;;;;;;0.32;0.32;;;9.80;99.90;;;;;;4417589;32;20073;-58
2024/02/22 05:12:26;;;;;;;0.30;0.30;;;9.80;99.90;;;;;;4412747;32;20072;-58
2024/02/22 05:14:51;;;;;;;0.40;0.40;;;9.70;99.90;;;;;;4423947;32;20406;-59
2024/02/22 05:17:19;;;;;;;0.50;0.50;;;9.60;99.90;;;;;;4423571;32;20085;-60
2024/02/22 05:19:44;;;;;;;0.30;0.30;;;9.70;99.90;;;;;;4426575;32;20819;-58
2024/02/22 05:22:10;;;;;;;2.67;0.70;;;9.60;99.90;;;;;;4418416;32;20077;-56
2024/02/22 05:24:36;;;;;;;0.40;0.40;;;9.60;99.90;;;;;;4420986;32;20069;-57
2024/02/22 05:27:02;;;;;;;0.37;0.37;;;9.60;99.90;;;;;;4426826;32;20664;-59
2024/02/22 05:29:28;;;;;;;0.40;0.40;;;9.50;99.90;;;;;;4427832;32;20115;-59
2024/02/22 05:31:55;;;;;;;0.30;0.30;;;9.50;99.90;;;;;;4425509;32;20056;-59
2024/02/22 05:34:21;;;;;;;1.70;1.25;;;9.50;99.90;;;;;;4417073;32;20434;-56
2024/02/22 05:36:47;;;;;;;0.50;0.50;;;9.40;99.90;;;;;;4413652;32;20073;-59
2024/02/22 05:39:12;;;;;;;0.45;0.45;;;9.40;99.90;;;;;;4424516;32;20143;-58
2024/02/22 05:41:38;;;;;;;0.40;0.40;;;9.40;99.90;;;;;;4423166;32;20469;-57
2024/02/22 05:44:04;;;;;;;0.30;0.30;;;9.40;99.90;;;;;;4418332;32;21065;-58
2024/02/22 05:46:29;;;;;;;0.30;0.30;;;9.30;99.90;;;;;;4422738;32;20287;-58
2024/02/22 05:48:55;;;;;;;0.32;0.32;;;9.30;99.90;;;;;;4422705;32;20073;-57
2024/02/22 05:51:21;;;;;;;0.40;0.40;;;9.30;99.90;;;;;;4420314;32;20065;-56
2024/02/22 05:53:47;;;;;;;0.40;0.40;;;9.30;99.90;;;;;;4412657;32;20533;-57
2024/02/22 05:56:13;;;;;;;0.30;0.30;;;9.30;99.90;;;;;;4421687;32;20093;-55
2024/02/22 05:58:40;;;;;;;0.52;0.52;;;9.20;99.90;;;;;;4422952;32;20066;-57
2024/02/22 06:01:05;;;;;;;0.30;0.30;;;9.20;99.90;;;;;;4420783;32;20381;-58
2024/02/22 06:03:31;;;;;;;0.40;0.40;;;9.20;99.90;;;;;;4424952;32;20500;-58
2024/02/22 06:05:57;;;;;;;0.30;0.30;;;9.20;99.90;;;;;;4413577;32;20094;-56
2024/02/22 06:08:23;;;;;;;1.98;1.40;;;9.20;99.90;;;;;;4420393;32;20073;-57
2024/02/22 06:10:49;;;;;;;0.30;0.30;;;9.20;99.90;;;;;;4400640;32;20057;-58
2024/02/22 06:13:15;;;;;;;0.30;0.30;;;9.20;99.90;;;;;;4409214;32;20283;-57
2024/02/22 06:15:40;;;;;;;0.20;0.20;;;9.20;99.90;;;;;;4406652;32;20070;-56
2024/02/22 06:18:06;;;;;;;0.40;0.40;;;9.20;99.90;;;;;;4421973;32;20077;-58
2024/02/22 06:20:31;;;;;;;0.30;0.30;;;9.20;99.90;;;;;;4412316;32;20368;-57
2024/02/22 06:22:59;;;;;;;0.50;0.50;;;9.20;99.90;;;;;;4407328;32;21089;-58
2024/02/22 06:25:26;;;;;;;0.30;0.30;;;9.20;99.90;;;;;;4395780;32;20329;-57
2024/02/22 06:27:51;;;;;;;0.30;0.30;;;9.10;99.90;;;;;;4395802;32;20192;-57
2024/02/22 06:30:17;;;;;;;0.30;0.30;;;9.10;99.90;;;;;;4415678;32;20088;-56
2024/02/22 06:32:43;;;;;;;0.30;0.30;;;9.20;99.90;;;;;;4411258;32;20115;-58
2024/02/22 06:35:09;;;;;;;0.40;0.40;;;9.10;99.90;;;;;;4398777;32;20824;-56
2024/02/22 06:37:35;;;;;;;0.30;0.30;;;9.10;99.90;;;;;;4398529;32;20124;-57
2024/02/22 06:40:01;;;;;;;0.40;0.40;;;9.00;99.90;;;;;;4408755;32;21277;-58
2024/02/22 06:42:26;;;;;;;0.30;0.30;;;9.00;99.90;;;;;;4406181;32;21496;-57
2024/02/22 06:44:52;;;;;;;0.30;0.30;;;9.00;99.90;;;;;;4401286;32;21197;-59
2024/02/22 06:47:18;;;;;;;0.40;0.40;;;9.00;99.90;;;;;;4404165;32;20093;-56
2024/02/22 06:49:43;;;;;;;0.35;0.35;;;8.90;99.90;;;;;;4403018;32;20100;-58
2024/02/22 06:52:09;;;;;;;0.35;0.35;;;8.90;99.90;;;;;;4402319;32;20088;-57
2024/02/22 06:54:35;;;;;;;0.37;0.37;;;9.00;99.90;;;;;;4395603;32;20545;-57
2024/02/22 06:57:01;;;;;;;0.30;0.30;;;9.00;99.90;;;;;;4387191;32;20081;-58
2024/02/22 06:59:27;;;;;;;0.40;0.40;;;9.00;99.90;;;;;;4377563;32;20864;-57
2024/02/22 07:01:53;;;;;;;0.30;0.30;;;8.90;99.90;;;;;;4373774;32;20105;-58
2024/02/22 07:04:18;;;;;;;0.28;0.28;;;9.00;99.90;;;;;;4382609;32;20474;-58
2024/02/22 07:06:44;;;;;;;0.30;0.30;;;8.90;99.90;;;;;;4373160;32;20466;-59
2024/02/22 07:09:11;;;;;;;0.30;0.30;;;8.90;99.90;;;;;;4372440;32;21665;-58
2024/02/22 07:11:37;;;;;;;0.30;0.30;;;8.90;99.90;;;;;;4383245;32;20105;-58
2024/02/22 07:14:02;;;;;;;0.30;0.30;;;8.90;99.90;;;;;;4379552;32;20081;-58
2024/02/22 07:16:28;;;;;;;0.43;0.43;;;8.90;99.90;;;;;;4381503;32;20867;-59
2024/02/22 07:18:54;;;;;;;0.82;0.82;;;8.90;99.90;;;;;;4377838;32;21168;-58
2024/02/22 07:21:20;;;;;;;0.40;0.40;;;8.90;99.90;;;;;;4354933;32;20865;-58
2024/02/22 07:23:46;;;;;;;0.52;0.52;;;8.90;99.90;;;;;;4384764;32;20637;-58
2024/02/22 07:26:12;;;;;;;0.35;0.35;;;8.90;99.90;;;;;;4382540;32;20670;-58
2024/02/22 07:28:38;;;;;;;0.30;0.30;;;8.90;99.90;;;;;;4377911;32;20411;-57
2024/02/22 07:31:04;;;;;;;0.30;0.30;;;8.90;99.90;;;;;;4377377;32;20155;-58
2024/02/22 07:33:29;;;;;;;1.20;0.75;;;8.90;99.90;;;;;;4377626;32;21225;-56
2024/02/22 07:35:55;;;;;;;0.40;0.40;;;8.90;99.90;;;;;;4385204;32;20709;-57
2024/02/22 07:38:22;;;;;;;0.30;0.30;;;8.80;99.90;;;;;;4387890;32;20068;-58
2024/02/22 07:40:48;;;;;;;0.35;0.35;;;8.70;99.90;;;;;;4370328;32;20618;-57
2024/02/22 07:43:13;;;;;;;0.30;0.30;;;8.70;99.90;;;;;;4383215;32;20212;-59
2024/02/22 07:45:40;;;;;;;0.40;0.40;;;8.70;99.90;;;;;;4388571;32;20237;-59
2024/02/22 07:48:09;;;;;;;0.30;0.30;;;8.70;99.90;;;;;;4369656;32;20327;-59
2024/02/22 07:50:35;;;;;;;0.32;0.32;;;8.70;99.90;;;;;;4392136;32;20130;-59
2024/02/22 07:53:00;;;;;;;0.50;0.50;;;8.70;99.90;;;;;;4386438;32;20148;-58
2024/02/22 07:55:26;;;;;;;0.40;0.40;;;8.70;99.90;;;;;;4389533;32;21476;-57
2024/02/22 07:57:51;;;;;;;0.30;0.30;;;8.80;99.90;;;;;;4395568;32;20077;-57
2024/02/22 08:00:17;;;;;;;0.40;0.40;;;8.80;99.90;;;;;;4383703;32;21909;-57
2024/02/22 08:02:44;;;;;;;0.32;0.32;;;8.70;99.90;;;;;;4355598;32;20993;-57
2024/02/22 08:05:10;;;;;;;2.20;0.73;;;8.80;99.90;;;;;;4367533;32;20105;-57
2024/02/22 08:07:36;;;;;;;0.28;0.28;;;8.80;99.90;;;;;;4364105;32;20093;-57
2024/02/22 08:10:03;;;;;;;0.43;0.40;;;8.80;99.90;;;;;;4368437;32;20155;-59
2024/02/22 08:12:28;;;;;;;0.30;0.30;;;8.80;99.90;;;;;;4383143;32;22480;-56
2024/02/22 08:14:54;;;;;;;0.30;0.30;;;8.80;99.90;;;;;;4379652;32;20105;-56
2024/02/22 08:17:20;;;;;;;0.40;0.40;;;8.80;99.90;;;;;;4372934;32;20459;-58
2024/02/22 08:19:47;;;;;;;0.30;0.30;;;8.80;99.90;;;;;;4349367;32;20108;-57
2024/02/22 08:22:13;;;;;;;0.50;0.50;;;8.80;99.90;;;;;;4364310;32;20097;-57
2024/02/22 08:24:38;;;;;;;0.30;0.30;;;8.80;99.90;;;;;;4395438;26;20096;-78
2024/02/22 08:27:04;;;;;;;0.30;0.30;;;8.70;99.90;;;;;;4379785;32;20077;-77
2024/02/22 08:29:29;;;;;;;0.30;0.30;;;8.70;99.90;;;;;;4385595;32;20132;-78
2024/02/22 08:31:55;;;;;;;0.30;0.30;;;8.70;99.90;;;;;;4384761;32;20382;-77
2024/02/22 08:34:21;;;;;;;0.37;0.37;;;8.80;99.90;;;;;;4381608;32;21111;-77
2024/02/22 08:36:47;;;;;;;0.30;0.30;;;8.80;99.90;;;;;;4391138;32;20145;-77
2024/02/22 08:39:14;;;;;;;0.37;0.37;;;8.90;99.90;;;;;;4390542;32;20401;-77
2024/02/22 08:41:40;;;;;;;0.30;0.30;;;8.80;99.90;;;;;;4391524;32;20118;-78
2024/02/22 08:44:06;;;;;;;0.30;0.30;;;8.80;99.90;;;;;;4394991;32;20148;-77
2024/02/22 08:46:32;;;;;;;0.30;0.30;;;8.80;99.90;;;;;;4382821;32;20101;-77
2024/02/22 08:48:59;;;;;;;0.52;0.52;;;8.80;99.90;;;;;;4395074;32;20174;-77
2024/02/22 08:51:24;;;;;;;0.30;0.30;;;8.80;99.90;;;;;;4396325;32;20387;-76
2024/02/22 08:53:53;;;;;;;0.40;0.40;;;8.80;99.90;;;;;;4389372;32;20584;-77
2024/02/22 08:56:18;;;;;;;0.30;0.30;;;8.90;99.90;;;;;;4380934;32;20789;-75
2024/02/22 08:58:46;;;;;;;0.40;0.40;;;8.90;99.90;;;;;;4383342;32;20089;-77
2024/02/22 09:01:11;;;;;;;0.47;0.47;;;8.90;99.90;;;;;;4381593;32;20600;-77
2024/02/22 09:03:37;;;;;;;0.20;0.20;;;8.90;99.90;;;;;;4391175;32;20555;-79
2024/02/22 09:06:02;;;;;;;0.30;0.30;;;8.90;99.90;;;;;;4390539;32;20415;-78
2024/02/22 09:08:28;;;;;;;0.35;0.35;;;8.90;99.90;;;;;;4388486;32;20085;-77
2024/02/22 09:10:54;;;;;;;0.30;0.30;;;8.90;99.90;;;;;;4400192;32;20189;-77
2024/02/22 09:13:19;;;;;;;0.40;0.40;;;8.80;99.90;;;;;;4394431;32;20089;-77
2024/02/22 09:15:49;;;;;;;0.40;0.40;;;8.90;99.90;;;;;;4379376;32;20212;-77
2024/02/22 09:18:15;;;;;;;0.40;0.40;;;8.90;99.90;;;;;;4387186;32;20081;-76
2024/02/22 09:20:41;;;;;;;0.30;0.30;;;8.90;99.90;;;;;;4382634;32;20089;-77
2024/02/22 09:23:07;;;;;;;0.30;0.30;;;8.90;99.90;;;;;;4383838;32;21121;-76
2024/02/22 09:25:33;;;;;;;0.30;0.30;;;8.90;99.90;;;;;;4386211;32;20447;-76
2024/02/22 09:28:00;;;;;;;0.30;0.30;;;8.90;99.90;;;;;;4381045;32;20085;-76
2024/02/22 09:30:25;;;;;;;0.30;0.30;;;8.90;99.90;;;;;;4381385;32;20709;-78
2024/02/22 09:32:52;;;;;;;0.35;0.35;;;8.90;99.90;;;;;;4383592;32;20835;-78
2024/02/22 09:35:18;;;;;;;0.35;0.35;;;9.00;99.90;;;;;;4374151;32;20828;-76
2024/02/22 09:37:45;;;;;;;0.20;0.20;;;9.00;99.90;;;;;;4372700;32;20680;-77
2024/02/22 09:40:13;;;;;;;0.32;0.32;;;8.90;99.90;;;;;;4372847;32;20117;-77
2024/02/22 09:42:39;;;;;;;0.40;0.40;;;9.00;99.90;;;;;;4378096;32;20098;-78
2024/02/22 09:45:05;;;;;;;0.43;0.43;;;9.10;99.90;;;;;;4375112;32;22564;-77
2024/02/22 09:47:32;;;;;;;0.32;0.32;;;9.10;99.90;;;;;;4381251;32;20451;-78
2024/02/22 09:50:00;;;;;;;0.50;0.50;;;9.10;99.90;;;;;;4386176;32;20093;-79
2024/02/22 09:52:26;;;;;;;0.30;0.30;;;9.10;99.90;;;;;;4384997;32;20774;-79
2024/02/22 09:54:51;;;;;;;0.30;0.30;;;9.20;99.90;;;;;;4391122;32;20153;-76
2024/02/22 09:57:18;;;;;;;0.30;0.30;;;9.20;99.90;;;;;;4381560;32;20202;-77
2024/02/22 09:59:49;;;;;;;0.62;0.62;;;9.10;99.90;;;;;;4379139;32;20725;-77
2024/02/22 10:02:15;;;;;;;0.30;0.30;;;9.10;99.90;;;;;;4379466;32;20711;-77
2024/02/22 10:04:56;;;;;;;13.25;1.65;;;9.10;99.90;;;;;;4384481;32;20281;-77
2024/02/22 10:07:24;;;;;;;0.40;0.40;;;9.10;99.90;;;;;;4377753;32;20184;-77
2024/02/22 10:09:50;;;;;;;0.40;0.40;;;9.10;99.90;;;;;;4363147;32;20545;-77
2024/02/22 10:12:35;;;;;;;0.52;0.43;;;9.00;99.90;;;;;;4384451;32;20125;-78
2024/02/22 10:15:01;;;;;;;0.43;0.43;;;9.10;99.90;;;;;;4377745;32;20331;-77
2024/02/22 10:17:29;;;;;;;0.30;0.30;;;9.20;99.90;;;;;;4388760;32;20161;-77
2024/02/22 10:20:00;;;;;;;0.50;0.50;;;9.20;99.90;;;;;;4389054;32;20126;-77
2024/02/22 10:22:37;;;;;;;0.30;0.30;;;9.30;99.90;;;;;;4386510;32;20109;-78
2024/02/22 10:25:14;;;;;;;0.32;0.32;;;9.30;99.90;;;;;;4381164;32;20173;-79
2024/02/22 10:27:45;;;;;;;0.30;0.30;;;9.30;99.90;;;;;;4393248;32;20097;-77
2024/02/22 10:30:13;;;;;;;0.20;0.20;;;9.30;99.90;;;;;;4393539;32;20109;-77
2024/02/22 10:32:40;;;;;;;0.30;0.30;;;9.40;99.90;;;;;;4379144;32;20176;-78
2024/02/22 10:35:07;;;;;;;0.50;0.50;;;9.40;99.90;;;;;;4377963;32;20242;-77
2024/02/22 10:37:34;;;;;;;0.40;0.40;;;9.30;99.90;;;;;;4379546;32;20196;-77
2024/02/22 10:40:03;;;;;;;0.40;0.40;;;9.50;99.90;;;;;;4378701;32;21216;-77
2024/02/22 10:42:29;;;;;;;0.93;0.85;;;9.50;99.90;;;;;;4371393;32;20686;-79
2024/02/22 10:44:57;;;;;;;0.43;0.43;;;9.60;99.90;;;;;;4384053;32;20937;-78
2024/02/22 10:47:25;;;;;;;0.47;0.47;;;9.60;99.90;;;;;;4388959;32;20348;-78
2024/02/22 10:49:54;;;;;;;0.50;0.50;;;9.80;99.90;;;;;;4394730;32;20518;-74
2024/02/22 10:52:22;;;;;;;0.43;0.43;;;9.90;99.90;;;;;;4391241;32;20181;-76
2024/02/22 10:54:54;;;;;;;0.47;0.47;;;10.00;99.90;;;;;;4389955;32;21319;-78
2024/02/22 10:57:22;;;;;;;0.40;0.40;;;10.10;99.90;;;;;;4395782;32;20221;-77
2024/02/22 10:59:52;;;;;;;0.30;0.30;;;10.30;99.90;;;;;;4389351;32;20798;-78
2024/02/22 11:02:19;;;;;;;0.30;0.30;;;10.30;99.90;;;;;;4388831;32;21351;-76
2024/02/22 11:04:45;;;;;;;0.50;0.50;;;10.30;99.90;;;;;;4387585;32;20258;-77
2024/02/22 11:07:13;;;;;;;0.28;0.28;;;10.40;99.90;;;;;;4385140;32;20798;-77
2024/02/22 11:09:40;;;;;;;0.60;0.60;;;10.50;99.90;;;;;;4398389;32;20553;-79
2024/02/22 11:12:07;;;;;;;0.30;0.30;;;10.70;99.90;;;;;;4397648;32;20129;-78
2024/02/22 11:14:37;;;;;;;0.20;0.20;;;10.70;99.90;;;;;;4393832;32;20553;-78
2024/02/22 11:17:15;;;;;;;0.50;0.50;;;10.70;99.90;;;;;;4395477;32;20362;-78
2024/02/22 11:19:44;;;;;;;0.30;0.30;;;10.50;99.90;;;;;;4398379;32;20101;-78
2024/02/22 11:22:14;;;;;;;0.35;0.35;;;10.50;99.90;;;;;;4400004;32;20093;-77
2024/02/22 11:24:41;;;;;;;0.40;0.40;;;10.60;99.90;;;;;;4396227;32;20097;-75
2024/02/22 11:27:07;;;;;;;0.43;0.43;;;10.60;99.90;;;;;;4390897;32;20084;-78
2024/02/22 11:29:33;;;;;;;0.30;0.30;;;10.70;99.90;;;;;;4409887;32;21859;-78
2024/02/22 11:31:59;;;;;;;0.50;0.50;;;10.80;99.90;;;;;;4397632;32;20762;-76
2024/02/22 11:34:26;;;;;;;0.30;0.30;;;10.90;99.90;;;;;;4408163;32;20086;-77
2024/02/22 11:37:17;;;;;;;0.40;0.40;;;10.80;99.90;;;;;;4405817;32;20105;-77
2024/02/22 11:39:46;;;;;;;0.40;0.40;;;10.80;99.90;;;;;;4405143;32;20097;-77
2024/02/22 11:42:15;;;;;;;0.50;0.50;;;10.90;99.90;;;;;;4405263;32;20077;-78
2024/02/22 11:44:41;;;;;;;0.30;0.30;;;10.80;99.90;;;;;;4406076;32;20190;-77
2024/02/22 11:47:07;;;;;;;0.70;0.70;;;10.90;99.90;;;;;;4401520;32;20835;-77
2024/02/22 11:49:33;;;;;;;0.40;0.40;;;10.80;99.90;;;;;;4411230;32;20069;-78
2024/02/22 11:51:59;;;;;;;0.40;0.40;;;10.70;99.90;;;;;;4422903;32;83659;-77
2024/02/22 11:54:25;;;;;;;0.45;0.45;;;10.80;99.90;;;;;;4417872;32;20101;-76
2024/02/22 11:56:52;;;;;;;0.40;0.40;;;10.70;99.90;;;;;;4421890;32;20104;-77
2024/02/22 11:59:18;;;;;;;0.45;0.45;;;10.60;99.90;;;;;;4417664;32;20262;-76
2024/02/22 12:04:14;;;;;;;0.45;0.45;;;10.40;99.90;;;;;;4427632;32;20080;-77
2024/02/22 12:06:40;;;;;;;0.40;0.40;;;10.50;99.90;;;;;;4427905;32;20209;-77
2024/02/22 12:09:07;;;;;;;0.37;0.37;;;10.50;99.90;;;;;;4425629;32;20085;-78
2024/02/22 12:11:34;;;;;;;0.30;0.30;;;10.50;99.90;;;;;;4422860;32;20147;-77
2024/02/22 12:14:03;;;;;;;0.43;0.43;;;10.50;99.90;;;;;;4424584;32;20900;-79
2024/02/22 12:16:29;;;;;;;0.47;0.47;;;10.50;99.90;;;;;;4413883;32;20201;-79
2024/02/22 12:18:56;;;;;;;0.40;0.40;;;10.50;99.90;;;;;;4421713;32;20120;-79
2024/02/22 12:21:23;;;;;;;0.30;0.30;;;10.60;99.90;;;;;;4424700;32;20820;-78
2024/02/22 12:23:50;;;;;;;0.40;0.40;;;10.50;99.90;;;;;;4424029;32;26994;-78
2024/02/22 12:26:18;;;;;;;0.30;0.30;;;10.50;99.90;;;;;;4421715;32;20192;-78
2024/02/22 12:28:45;;;;;;;0.28;0.28;;;10.50;99.90;;;;;;4418085;32;20076;-78
2024/02/22 12:31:10;;;;;;;0.40;0.40;;;10.50;99.90;;;;;;4409932;32;20439;-78
2024/02/22 12:33:37;;;;;;;0.30;0.30;;;10.60;99.90;;;;;;4407783;32;20089;-78
2024/02/22 12:36:03;;;;;;;0.30;0.30;;;10.60;99.90;;;;;;4406430;32;20073;-78
2024/02/22 12:38:29;;;;;;;0.40;0.40;;;10.50;99.90;;;;;;4400238;32;20141;-78
2024/02/22 12:40:56;;;;;;;0.50;0.50;;;10.60;99.90;;;;;;4404201;32;20436;-79
2024/02/22 12:43:21;;;;;;;0.40;0.40;;;10.60;99.90;;;;;;4406585;32;20180;-79
2024/02/22 12:45:49;;;;;;;0.50;0.50;;;10.70;99.90;;;;;;4397541;32;20202;-79
2024/02/22 12:48:15;;;;;;;0.35;0.35;;;10.60;99.90;;;;;;4402473;32;20100;-79
2024/02/22 12:50:41;;;;;;;0.40;0.40;;;10.70;99.90;;;;;;4410824;32;20081;-76
2024/02/22 12:53:09;;;;;;;1.98;0.65;;;10.70;99.90;;;;;;4413458;32;20102;-78